Time;durP1;ratioP1;P1;durP2;ratioP2;P2;SDS_P1;SDS_P2;PMS_P1;PMS_P2;Temp;Humidity;BMP_temperature;BMP_pressure;BME280_temperature;BME280_humidity;BME280_pressure;Samples;Min_cycle;Max_cycle;Signal;HPM_P1;HPM_P2
2023/04/19 00:00:13;;;;;;;4.60;2.40;;;;;;;;;;5010678;28;20135;-51
2023/04/19 00:02:41;;;;;;;;;;;;;;;;;;5002762;28;20132;-55
2023/04/19 00:05:23;;;;;;;3.30;2.33;;;;;;;;;;5010898;28;19921;-55
2023/04/19 00:07:50;;;;;;;3.15;2.13;;;;;;;;;;5013227;28;20140;-54
2023/04/19 00:10:25;;;;;;;3.92;2.17;;;;;;;;;;5014080;28;20517;-50
2023/04/19 00:12:52;;;;;;;4.05;2.25;;;;;;;;;;5014744;28;20152;-54
2023/04/19 00:15:19;;;;;;;5.45;1.95;;;;;;;;;;5011302;28;20417;-62
2023/04/19 00:17:53;;;;;;;9.18;2.25;;;;;;;;;;5011762;28;20045;-62
2023/04/19 00:20:21;;;;;;;4.70;2.40;;;;;;;;;;5013125;28;20284;-62
2023/04/19 00:22:56;;;;;;;3.95;2.40;;;;;;;;;;5013619;28;20064;-62
2023/04/19 00:25:23;;;;;;;3.47;2.30;;;;;;;;;;5015003;28;20057;-59
2023/04/19 00:27:50;;;;;;;4.72;1.98;;;;;;;;;;5013912;28;20532;-61
2023/04/19 00:30:24;;;;;;;12.35;2.65;;;;;;;;;;5008013;28;20064;-61
2023/04/19 00:32:52;;;;;;;3.97;1.85;;;;;;;;;;5012444;28;20413;-61
2023/04/19 00:35:26;;;;;;;4.32;2.30;;;;;;;;;;5011791;28;20050;-61
2023/04/19 00:37:53;;;;;;;6.47;2.10;;;;;;;;;;5013406;28;20068;-61
2023/04/19 00:40:20;;;;;;;4.32;2.40;;;;;;;;;;5015247;28;20077;-61
2023/04/19 00:42:53;;;;;;;6.18;2.10;;;;;;;;;;5012939;28;20655;-49
2023/04/19 00:45:20;;;;;;;5.43;2.15;;;;;;;;;;5012388;28;20046;-53
2023/04/19 00:47:55;;;;;;;2.97;2.30;;;;;;;;;;5015795;28;20144;-50
2023/04/19 00:50:22;;;;;;;3.75;1.90;;;;;;;;;;5010907;28;20152;-53
2023/04/19 00:52:57;;;;;;;3.75;2.20;;;;;;;;;;5008946;28;20132;-55
2023/04/19 00:55:31;;;;;;;5.82;2.63;;;;;;;;;;5008865;28;20559;-48
2023/04/19 00:58:05;;;;;;;3.63;2.10;;;;;;;;;;5008844;28;20050;-53
2023/04/19 01:00:40;;;;;;;4.20;2.22;;;;;;;;;;5008187;28;20136;-53
2023/04/19 01:03:07;;;;;;;3.97;2.13;;;;;;;;;;5007522;28;20432;-53
2023/04/19 01:05:35;;;;;;;7.32;2.13;;;;;;;;;;5005221;28;20152;-45
2023/04/19 01:08:15;;;;;;;4.25;2.40;;;;;;;;;;5007598;28;20093;-46
2023/04/19 01:10:42;;;;;;;3.78;2.13;;;;;;;;;;5005718;28;20188;-53
2023/04/19 01:13:16;;;;;;;3.00;1.95;;;;;;;;;;5006667;28;20501;-53
2023/04/19 01:15:44;;;;;;;6.95;2.25;;;;;;;;;;5006623;28;20068;-55
2023/04/19 01:18:12;;;;;;;5.35;2.53;;;;;;;;;;5006793;28;20492;-53
2023/04/19 01:20:46;;;;;;;3.75;2.17;;;;;;;;;;5006056;28;20069;-58
2023/04/19 01:23:14;;;;;;;5.35;2.30;;;;;;;;;;5002978;28;20061;-62
2023/04/19 01:25:41;;;;;;;3.28;2.40;;;;;;;;;;5006965;28;20148;-47
2023/04/19 01:28:15;;;;;;;5.07;2.38;;;;;;;;;;5004913;28;20064;-46
2023/04/19 01:30:42;;;;;;;4.55;2.15;;;;;;;;;;5005660;28;20060;-50
2023/04/19 01:33:16;;;;;;;3.83;2.30;;;;;;;;;;5004748;28;20509;-46
2023/04/19 01:35:43;;;;;;;;;;;;;;;;;;5003880;28;20056;-45
2023/04/19 01:38:10;;;;;;;5.97;3.05;;;;;;;;;;5006718;28;20365;-46
2023/04/19 01:40:45;;;;;;;5.63;3.10;;;;;;;;;;5006732;28;20540;-52
2023/04/19 01:43:13;;;;;;;4.25;2.38;;;;;;;;;;5006462;28;20073;-48
2023/04/19 01:45:40;;;;;;;4.35;2.38;;;;;;;;;;5006706;28;21582;-53
2023/04/19 01:48:14;;;;;;;3.20;2.15;;;;;;;;;;5005119;28;20050;-51
2023/04/19 01:50:42;;;;;;;5.95;2.78;;;;;;;;;;5005691;28;20105;-53
2023/04/19 01:53:16;;;;;;;3.60;2.50;;;;;;;;;;5009688;28;20057;-55
2023/04/19 01:55:43;;;;;;;8.98;2.80;;;;;;;;;;5009641;28;20057;-51
2023/04/19 01:58:10;;;;;;;5.07;2.97;;;;;;;;;;5008486;28;20188;-50
2023/04/19 02:00:44;;;;;;;4.18;2.50;;;;;;;;;;5006151;28;20058;-49
2023/04/19 02:03:12;;;;;;;8.23;2.88;;;;;;;;;;5003444;28;20572;-50
2023/04/19 02:05:52;;;;;;;3.90;2.67;;;;;;;;;;5006341;28;20188;-55
2023/04/19 02:08:26;;;;;;;3.58;2.40;;;;;;;;;;5011979;28;20141;-45
2023/04/19 02:10:54;;;;;;;8.27;2.58;;;;;;;;;;5009448;28;20553;-45
2023/04/19 02:13:27;;;;;;;6.95;2.80;;;;;;;;;;5010685;28;20064;-45
2023/04/19 02:15:54;;;;;;;5.70;3.17;;;;;;;;;;5010783;28;20449;-45
2023/04/19 02:18:22;;;;;;;8.00;3.30;;;;;;;;;;5010956;28;20047;-62
2023/04/19 02:20:57;;;;;;;6.43;2.70;;;;;;;;;;5008931;28;20049;-55
2023/04/19 02:23:25;;;;;;;6.25;2.90;;;;;;;;;;5010095;28;20433;-58
2023/04/19 02:26:00;;;;;;;3.92;2.30;;;;;;;;;;5009956;28;20050;-58
2023/04/19 02:28:27;;;;;;;6.80;2.50;;;;;;;;;;5011721;28;20053;-56
2023/04/19 02:30:54;;;;;;;6.20;2.65;;;;;;;;;;5009136;28;20058;-56
2023/04/19 02:33:28;;;;;;;6.00;2.88;;;;;;;;;;5011881;28;20425;-59
2023/04/19 02:35:56;;;;;;;5.93;2.67;;;;;;;;;;5010218;28;20168;-50
2023/04/19 02:38:30;;;;;;;5.03;3.20;;;;;;;;;;5012270;28;20057;-54
2023/04/19 02:40:59;;;;;;;6.28;2.95;;;;;;;;;;5010807;28;20488;-52
2023/04/19 02:43:26;;;;;;;7.18;2.92;;;;;;;;;;5011106;28;20141;-56
2023/04/19 02:46:01;;;;;;;9.35;3.00;;;;;;;;;;5011553;28;20052;-56
2023/04/19 02:48:28;;;;;;;6.55;2.95;;;;;;;;;;5008110;28;20108;-60
2023/04/19 02:51:02;;;;;;;6.15;3.10;;;;;;;;;;5005657;28;20085;-61
2023/04/19 02:53:30;;;;;;;5.32;2.75;;;;;;;;;;5012795;28;20053;-60
2023/04/19 02:55:57;;;;;;;4.38;2.35;;;;;;;;;;5017290;28;20141;-61
2023/04/19 02:58:31;;;;;;;4.95;3.03;;;;;;;;;;5015728;28;20512;-61
2023/04/19 03:00:58;;;;;;;6.82;2.53;;;;;;;;;;5011599;28;20412;-61
2023/04/19 03:03:25;;;;;;;4.80;2.30;;;;;;;;;;5015487;28;20054;-61
2023/04/19 03:06:05;;;;;;;4.97;2.80;;;;;;;;;;5013750;28;20065;-60
2023/04/19 03:08:32;;;;;;;4.75;3.03;;;;;;;;;;5016281;28;20136;-60
2023/04/19 03:11:06;;;;;;;4.75;2.67;;;;;;;;;;5016701;28;20057;-59
2023/04/19 03:13:34;;;;;;;5.93;2.70;;;;;;;;;;5016424;28;20527;-60
2023/04/19 03:16:01;;;;;;;3.85;2.63;;;;;;;;;;5010279;28;20045;-64
2023/04/19 03:18:35;;;;;;;5.68;2.88;;;;;;;;;;5017350;28;20112;-45
2023/04/19 03:21:03;;;;;;;5.78;2.60;;;;;;;;;;4998290;28;20620;-45
2023/04/19 03:23:30;;;;;;;6.50;3.08;;;;;;;;;;5013229;28;20126;-45
2023/04/19 03:26:04;;;;;;;5.15;2.67;;;;;;;;;;5013176;28;20137;-45
2023/04/19 03:28:31;;;;;;;10.45;2.85;;;;;;;;;;5015018;28;20058;-47
2023/04/19 03:31:05;;;;;;;3.10;2.25;;;;;;;;;;5011174;28;20140;-51
2023/04/19 03:33:32;;;;;;;6.88;1.90;;;;;;;;;;5012486;28;20049;-61
2023/04/19 03:35:59;;;;;;;3.85;2.28;;;;;;;;;;5016177;28;20041;-61
2023/04/19 03:38:33;;;;;;;4.50;1.88;;;;;;;;;;5013763;28;20089;-61
2023/04/19 03:41:00;;;;;;;4.03;1.88;;;;;;;;;;5013488;28;20064;-61
2023/04/19 03:43:34;;;;;;;3.90;2.17;;;;;;;;;;5016658;28;20064;-60
2023/04/19 03:46:01;;;;;;;4.15;1.77;;;;;;;;;;5012049;28;20068;-45
2023/04/19 03:48:28;;;;;;;2.95;1.85;;;;;;;;;;5006704;28;20053;-45
2023/04/19 03:51:02;;;;;;;3.08;2.00;;;;;;;;;;5014505;28;20064;-45
2023/04/19 03:53:29;;;;;;;3.95;2.00;;;;;;;;;;5011932;28;20080;-45
2023/04/19 03:55:56;;;;;;;3.53;2.30;;;;;;;;;;5013315;28;20498;-45
2023/04/19 03:58:31;;;;;;;5.00;2.20;;;;;;;;;;5009804;28;20081;-45
2023/04/19 04:01:01;;;;;;;8.07;2.42;;;;;;;;;;5011238;28;20137;-48
2023/04/19 04:03:35;;;;;;;3.92;2.03;;;;;;;;;;5015526;28;20050;-52
2023/04/19 04:06:08;;;;;;;;;;;;;;;;;;5014310;28;20660;-49
2023/04/19 04:08:49;;;;;;;4.97;2.15;;;;;;;;;;5012325;28;19954;-51
2023/04/19 04:11:17;;;;;;;4.88;2.22;;;;;;;;;;5015046;28;20072;-61
2023/04/19 04:13:50;;;;;;;10.15;2.38;;;;;;;;;;5012238;28;20045;-45
2023/04/19 04:16:24;;;;;;;6.25;2.50;;;;;;;;;;5015351;28;20120;-50
2023/04/19 04:18:52;;;;;;;5.60;2.42;;;;;;;;;;5013921;28;20045;-55
2023/04/19 04:21:19;;;;;;;5.78;2.55;;;;;;;;;;5011897;28;20064;-52
2023/04/19 04:23:53;;;;;;;5.20;2.30;;;;;;;;;;5013844;28;20687;-52
2023/04/19 04:26:20;;;;;;;7.78;2.30;;;;;;;;;;5014950;28;20108;-54
2023/04/19 04:28:47;;;;;;;4.43;2.53;;;;;;;;;;5000242;28;20599;-51
2023/04/19 04:31:21;;;;;;;6.40;2.20;;;;;;;;;;5013121;28;20052;-51
2023/04/19 04:33:49;;;;;;;5.75;2.17;;;;;;;;;;5011908;28;20050;-48
2023/04/19 04:36:24;;;;;;;3.17;1.98;;;;;;;;;;5011953;28;20060;-51
2023/04/19 04:38:51;;;;;;;6.82;2.20;;;;;;;;;;5011973;28;20063;-49
2023/04/19 04:41:19;;;;;;;6.13;2.20;;;;;;;;;;5014321;28;20707;-45
2023/04/19 04:43:54;;;;;;;8.23;2.13;;;;;;;;;;5010275;28;20369;-54
2023/04/19 04:46:37;;;;;;;4.57;2.20;;;;;;;;;;5011010;28;20053;-53
2023/04/19 04:49:12;;;;;;;6.22;2.20;;;;;;;;;;5008713;28;20502;-57
2023/04/19 04:51:39;;;;;;;4.97;2.65;;;;;;;;;;5012687;28;20064;-57
2023/04/19 04:54:13;;;;;;;3.47;2.00;;;;;;;;;;5010338;28;20046;-55
2023/04/19 04:56:40;;;;;;;3.72;1.98;;;;;;;;;;4996619;28;20049;-56
2023/04/19 04:59:07;;;;;;;7.63;1.95;;;;;;;;;;5011647;28;20056;-60
2023/04/19 05:01:41;;;;;;;5.10;2.20;;;;;;;;;;5010347;28;20068;-61
2023/04/19 05:04:09;;;;;;;4.95;1.88;;;;;;;;;;5013120;28;20096;-61
2023/04/19 05:06:49;;;;;;;7.45;2.20;;;;;;;;;;5013042;28;20053;-61
2023/04/19 05:09:16;;;;;;;4.90;2.47;;;;;;;;;;5011184;28;20046;-45
2023/04/19 05:11:51;;;;;;;2.67;1.85;;;;;;;;;;5011700;28;20076;-61
2023/04/19 05:14:18;;;;;;;3.05;1.90;;;;;;;;;;5011833;28;20049;-61
2023/04/19 05:16:45;;;;;;;3.25;2.05;;;;;;;;;;5010357;28;20072;-61
2023/04/19 05:19:19;;;;;;;3.03;1.80;;;;;;;;;;5010231;28;20053;-60
2023/04/19 05:21:46;;;;;;;8.63;2.22;;;;;;;;;;5013194;28;20054;-61
2023/04/19 05:24:20;;;;;;;14.23;2.05;;;;;;;;;;5017371;28;20048;-60
2023/04/19 05:26:47;;;;;;;4.75;2.00;;;;;;;;;;5011308;28;20441;-60
2023/04/19 05:29:14;;;;;;;3.25;1.83;;;;;;;;;;5011797;28;20132;-60
2023/04/19 05:31:47;;;;;;;2.55;1.70;;;;;;;;;;5012551;28;20057;-60
2023/04/19 05:34:15;;;;;;;3.03;1.65;;;;;;;;;;5014493;28;20053;-60
2023/04/19 05:36:49;;;;;;;10.98;2.08;;;;;;;;;;5011800;28;20093;-56
2023/04/19 05:39:16;;;;;;;4.25;1.60;;;;;;;;;;5010066;28;20061;-56
2023/04/19 05:41:43;;;;;;;1.55;1.30;;;;;;;;;;5012985;28;20049;-60
2023/04/19 05:44:17;;;;;;;2.67;1.45;;;;;;;;;;5012626;28;20060;-60
2023/04/19 05:46:44;;;;;;;4.75;1.70;;;;;;;;;;5010102;28;20065;-60
2023/04/19 05:49:18;;;;;;;4.05;1.40;;;;;;;;;;5010581;28;20053;-60
2023/04/19 05:51:45;;;;;;;2.15;1.48;;;;;;;;;;5011534;28;20519;-60
2023/04/19 05:54:13;;;;;;;1.85;1.38;;;;;;;;;;5013967;28;20509;-60
2023/04/19 05:56:47;;;;;;;3.58;1.23;;;;;;;;;;5014084;28;20092;-60
2023/04/19 05:59:14;;;;;;;2.03;1.20;;;;;;;;;;5012328;28;20049;-60
2023/04/19 06:01:48;;;;;;;1.88;1.30;;;;;;;;;;5011129;28;20054;-60
2023/04/19 06:04:15;;;;;;;1.02;0.93;;;;;;;;;;5012731;28;20072;-60
2023/04/19 06:06:43;;;;;;;2.05;1.23;;;;;;;;;;5011058;28;20597;-58
2023/04/19 06:09:23;;;;;;;2.80;0.88;;;;;;;;;;5014601;28;20064;-56
2023/04/19 06:11:53;;;;;;;1.38;0.90;;;;;;;;;;5011755;28;20470;-57
2023/04/19 06:14:28;;;;;;;1.23;0.98;;;;;;;;;;5013685;28;20076;-58
2023/04/19 06:16:55;;;;;;;1.02;0.85;;;;;;;;;;5015652;28;20513;-56
2023/04/19 06:19:32;;;;;;;0.77;0.77;;;;;;;;;;5009608;28;20141;-57
2023/04/19 06:22:00;;;;;;;2.33;0.70;;;;;;;;;;5014724;28;20116;-57
2023/04/19 06:24:27;;;;;;;0.82;0.80;;;;;;;;;;5013148;28;20064;-52
2023/04/19 06:27:01;;;;;;;0.88;0.80;;;;;;;;;;5012668;28;20061;-53
2023/04/19 06:29:28;;;;;;;2.05;1.17;;;;;;;;;;5011447;28;20136;-46
2023/04/19 06:32:03;;;;;;;1.65;0.80;;;;;;;;;;5011336;28;20053;-45
2023/04/19 06:34:30;;;;;;;2.05;0.90;;;;;;;;;;5013641;28;20064;-56
2023/04/19 06:36:58;;;;;;;3.75;0.98;;;;;;;;;;5009561;28;20046;-46
2023/04/19 06:39:32;;;;;;;3.35;1.05;;;;;;;;;;5008528;28;20072;-45
2023/04/19 06:41:59;;;;;;;3.22;1.23;;;;;;;;;;5010429;28;20049;-45
2023/04/19 06:44:32;;;;;;;2.40;0.93;;;;;;;;;;5014175;28;20053;-47
2023/04/19 06:47:00;;;;;;;1.48;1.00;;;;;;;;;;5009026;28;20505;-48
2023/04/19 06:49:27;;;;;;;1.27;0.80;;;;;;;;;;5011853;28;20042;-46
2023/04/19 06:52:01;;;;;;;2.75;1.05;;;;;;;;;;5014114;28;20057;-55
2023/04/19 06:54:28;;;;;;;3.60;1.10;;;;;;;;;;5011948;28;20135;-54
2023/04/19 06:57:02;;;;;;;1.65;1.20;;;;;;;;;;5001643;28;20048;-53
2023/04/19 06:59:31;;;;;;;1.13;0.80;;;;;;;;;;5013077;28;20182;-53
2023/04/19 07:01:58;;;;;;;2.55;0.80;;;;;;;;;;5011840;28;20058;-61
2023/04/19 07:04:32;;;;;;;1.08;0.90;;;;;;;;;;5009755;28;20081;-60
2023/04/19 07:07:07;;;;;;;;;;;;;;;;;;5014928;28;20525;-61
2023/04/19 07:09:42;;;;;;;1.23;0.85;;;;;;;;;;5000567;28;19929;-61
2023/04/19 07:12:10;;;;;;;1.30;0.85;;;;;;;;;;5012076;28;20050;-60
2023/04/19 07:14:40;;;;;;;1.20;0.68;;;;;;;;;;4996439;28;21301;-61
2023/04/19 07:17:14;;;;;;;2.22;1.02;;;;;;;;;;5011068;28;20054;-61
2023/04/19 07:19:41;;;;;;;2.83;0.85;;;;;;;;;;5011252;28;20049;-61
2023/04/19 07:22:15;;;;;;;3.75;0.85;;;;;;;;;;5009699;28;20061;-55
2023/04/19 07:24:43;;;;;;;1.30;0.80;;;;;;;;;;5010888;28;20497;-55
2023/04/19 07:27:10;;;;;;;1.38;0.95;;;;;;;;;;5007790;28;20464;-56
2023/04/19 07:29:45;;;;;;;1.70;0.80;;;;;;;;;;5012223;28;20054;-55
2023/04/19 07:32:13;;;;;;;2.95;1.10;;;;;;;;;;5010295;28;20068;-52
2023/04/19 07:34:48;;;;;;;1.90;0.90;;;;;;;;;;5009150;28;20057;-56
2023/04/19 07:37:15;;;;;;;2.63;1.20;;;;;;;;;;5006581;28;21421;-54
2023/04/19 07:39:42;;;;;;;1.65;1.02;;;;;;;;;;5014350;28;20196;-55
2023/04/19 07:42:16;;;;;;;1.90;1.17;;;;;;;;;;5014326;28;20085;-53
2023/04/19 07:44:43;;;;;;;1.25;0.70;;;;;;;;;;5015515;28;20145;-56
2023/04/19 07:47:17;;;;;;;1.63;1.10;;;;;;;;;;5016177;28;20054;-57
2023/04/19 07:49:44;;;;;;;1.65;1.05;;;;;;;;;;5013701;28;20560;-62
2023/04/19 07:52:11;;;;;;;1.40;0.77;;;;;;;;;;5010857;28;20079;-61
2023/04/19 07:54:46;;;;;;;2.00;1.08;;;;;;;;;;5017046;28;20057;-61
2023/04/19 07:57:13;;;;;;;2.28;0.80;;;;;;;;;;5011205;28;20516;-61
2023/04/19 07:59:40;;;;;;;1.63;1.00;;;;;;;;;;5017348;28;20493;-62
2023/04/19 08:02:15;;;;;;;1.15;0.75;;;;;;;;;;5012294;28;20061;-62
2023/04/19 08:04:47;;;;;;;1.25;0.80;;;;;;;;;;5012979;28;20132;-62
2023/04/19 08:07:27;;;;;;;2.70;0.82;;;;;;;;;;5013626;28;20046;-61
2023/04/19 08:09:55;;;;;;;1.77;0.90;;;;;;;;;;5012316;28;20496;-61
2023/04/19 08:12:29;;;;;;;1.45;0.90;;;;;;;;;;5015414;28;20065;-61
2023/04/19 08:15:07;;;;;;;1.75;1.02;;;;;;;;;;5014845;28;20686;-60
2023/04/19 08:18:03;;;;;;;3.92;1.42;;;;;;;;;;5013675;28;20058;-56
2023/04/19 08:20:31;;;;;;;1.05;0.47;;;;;;;;;;5014355;28;20514;-58
2023/04/19 08:23:05;;;;;;;0.80;0.70;;;;;;;;;;5013039;28;20049;-54
2023/04/19 08:25:48;;;;;;;0.65;0.63;;;;;;;;;;5013934;28;20076;-58
2023/04/19 08:28:22;;;;;;;2.90;0.80;;;;;;;;;;5013474;28;20532;-55
2023/04/19 08:30:49;;;;;;;0.75;0.70;;;;;;;;;;5011828;28;20046;-47
2023/04/19 08:33:23;;;;;;;1.73;1.00;;;;;;;;;;5015104;28;20054;-47
2023/04/19 08:35:50;;;;;;;1.42;0.80;;;;;;;;;;5016480;28;20132;-48
2023/04/19 08:38:17;;;;;;;0.75;0.60;;;;;;;;;;5011378;28;20140;-48
2023/04/19 08:40:54;;;;;;;1.02;0.90;;;;;;;;;;5013363;28;20050;-47
2023/04/19 08:43:24;;;;;;;1.80;1.05;;;;;;;;;;5012067;28;20053;-48
2023/04/19 08:45:58;;;;;;;1.27;0.90;;;;;;;;;;5014646;28;20137;-61
2023/04/19 08:48:25;;;;;;;;;;;;;;;;;;5013915;28;20489;-62
2023/04/19 08:50:53;;;;;;;0.63;0.60;;;;;;;;;;5015822;28;20388;-60
2023/04/19 08:53:34;;;;;;;3.15;0.70;;;;;;;;;;5013204;28;20104;-60
2023/04/19 08:56:02;;;;;;;0.77;0.70;;;;;;;;;;5010909;28;20189;-60
2023/04/19 08:58:50;;;;;;;0.95;0.60;;;;;;;;;;5009344;28;20057;-47
2023/04/19 09:01:37;;;;;;;0.88;0.65;;;;;;;;;;5011873;28;20049;-50
2023/04/19 09:04:11;;;;;;;3.67;1.33;;;;;;;;;;5012533;28;20064;-46
2023/04/19 09:06:47;;;;;;;1.92;0.82;;;;;;;;;;5011370;28;20444;-49
2023/04/19 09:09:23;;;;;;;2.67;0.68;;;;;;;;;;5015264;28;20455;-49
2023/04/19 09:11:53;;;;;;;1.17;0.70;;;;;;;;;;5014954;28;20057;-49
2023/04/19 09:14:27;;;;;;;2.28;0.70;;;;;;;;;;5012072;28;20053;-60
2023/04/19 09:17:11;;;;;;;2.13;1.00;;;;;;;;;;5012287;28;20053;-60
2023/04/19 09:19:48;;;;;;;3.53;1.10;;;;;;;;;;5011916;28;20536;-60
2023/04/19 09:22:16;;;;;;;2.50;0.80;;;;;;;;;;5012047;28;20053;-60
2023/04/19 09:24:44;;;;;;;;;;;;;;;;;;5013199;28;20057;-59
2023/04/19 09:27:31;;;;;;;1.33;0.65;;;;;;;;;;5009544;28;19930;-58
2023/04/19 09:29:59;;;;;;;0.87;0.60;;;;;;;;;;5010749;28;20132;-59
2023/04/19 09:32:47;;;;;;;1.30;0.68;;;;;;;;;;5009755;28;20487;-58
2023/04/19 09:35:15;;;;;;;1.48;0.80;;;;;;;;;;5007814;28;20072;-59
2023/04/19 09:37:59;;;;;;;1.52;0.68;;;;;;;;;;5010510;28;20058;-58
2023/04/19 09:40:33;;;;;;;1.05;0.63;;;;;;;;;;5012595;28;20062;-58
2023/04/19 09:43:07;;;;;;;2.28;0.50;;;;;;;;;;5013568;28;20756;-61
2023/04/19 09:45:59;;;;;;;1.17;0.88;;;;;;;;;;5011857;28;20056;-62
2023/04/19 09:48:33;;;;;;;2.13;1.23;;;;;;;;;;5011893;28;20093;-62
2023/04/19 09:51:01;;;;;;;2.05;0.90;;;;;;;;;;5011740;28;20505;-62
2023/04/19 09:53:40;;;;;;;1.10;0.70;;;;;;;;;;5009080;28;20042;-60
2023/04/19 09:56:11;;;;;;;0.75;0.60;;;;;;;;;;5015539;28;20096;-59
2023/04/19 09:58:45;;;;;;;0.93;0.63;;;;;;;;;;5011790;28;20051;-59
2023/04/19 10:01:21;;;;;;;4.55;1.10;;;;;;;;;;5011315;28;20188;-59
2023/04/19 10:03:55;;;;;;;2.97;0.90;;;;;;;;;;5010222;28;20089;-58
2023/04/19 10:06:39;;;;;;;1.02;0.80;;;;;;;;;;5013467;28;20062;-59
2023/04/19 10:09:25;;;;;;;0.70;0.70;;;;;;;;;;5011827;28;20112;-58
2023/04/19 10:11:53;;;;;;;1.75;1.02;;;;;;;;;;5001394;28;20065;-53
2023/04/19 10:14:42;;;;;;;1.48;0.80;;;;;;;;;;5010555;28;20050;-56
2023/04/19 10:17:09;;;;;;;2.47;1.08;;;;;;;;;;5009214;28;20053;-53
2023/04/19 10:19:44;;;;;;;1.15;0.90;;;;;;;;;;5009826;28;20153;-54
2023/04/19 10:22:13;;;;;;;1.33;1.00;;;;;;;;;;5010381;28;20782;-53
2023/04/19 10:24:40;;;;;;;5.72;1.10;;;;;;;;;;5011548;28;20049;-62
2023/04/19 10:27:15;;;;;;;1.17;0.95;;;;;;;;;;5010719;28;20050;-61
2023/04/19 10:29:51;;;;;;;3.10;1.05;;;;;;;;;;5007974;28;20089;-62
2023/04/19 10:32:29;;;;;;;2.45;1.02;;;;;;;;;;5007738;28;20060;-62
2023/04/19 10:35:03;;;;;;;1.55;1.00;;;;;;;;;;5014210;28;20068;-62
2023/04/19 10:37:40;;;;;;;1.05;0.90;;;;;;;;;;4997699;28;20069;-61
2023/04/19 10:40:08;;;;;;;3.55;0.95;;;;;;;;;;5009793;28;20105;-61
2023/04/19 10:42:54;;;;;;;1.48;0.77;;;;;;;;;;5000205;28;20054;-62
2023/04/19 10:45:31;;;;;;;6.80;1.20;;;;;;;;;;5012100;28;20089;-61
2023/04/19 10:47:58;;;;;;;2.25;1.00;;;;;;;;;;5008081;28;20057;-62
2023/04/19 10:50:51;;;;;;;1.58;1.20;;;;;;;;;;5010043;28;20054;-47
2023/04/19 10:53:37;;;;;;;2.30;1.10;;;;;;;;;;5016476;28;20058;-48
2023/04/19 10:56:11;;;;;;;3.63;1.10;;;;;;;;;;5006488;28;20151;-47
2023/04/19 10:58:57;;;;;;;1.55;1.30;;;;;;;;;;5010159;28;20176;-51
2023/04/19 11:01:44;;;;;;;7.85;1.20;;;;;;;;;;5013104;28;20057;-50
2023/04/19 11:04:11;;;;;;;0.95;0.77;;;;;;;;;;5010304;28;20085;-47
2023/04/19 11:06:52;;;;;;;2.03;1.10;;;;;;;;;;5009931;28;20080;-50
2023/04/19 11:09:26;;;;;;;4.75;1.13;;;;;;;;;;5012053;28;21643;-51
2023/04/19 11:12:01;;;;;;;1.08;0.95;;;;;;;;;;5011249;28;20420;-50
2023/04/19 11:14:33;;;;;;;4.90;1.08;;;;;;;;;;5007935;28;21352;-49
2023/04/19 11:17:02;;;;;;;3.30;1.02;;;;;;;;;;5011542;28;20057;-50
2023/04/19 11:19:36;;;;;;;3.33;1.23;;;;;;;;;;5014003;28;20505;-48
2023/04/19 11:22:03;;;;;;;1.70;1.13;;;;;;;;;;5015944;28;20136;-62
2023/04/19 11:24:37;;;;;;;2.60;1.30;;;;;;;;;;5014084;28;20136;-62
2023/04/19 11:27:08;;;;;;;3.00;1.45;;;;;;;;;;5013557;28;20128;-62
2023/04/19 11:29:35;;;;;;;3.13;1.10;;;;;;;;;;5012727;28;20060;-62
2023/04/19 11:32:10;;;;;;;3.00;1.30;;;;;;;;;;5012875;28;20431;-62
2023/04/19 11:34:50;;;;;;;2.22;0.93;;;;;;;;;;4999841;28;20083;-62
2023/04/19 11:37:18;;;;;;;1.13;1.00;;;;;;;;;;5015250;28;20419;-58
2023/04/19 11:39:59;;;;;;;2.05;1.25;;;;;;;;;;5016130;28;20561;-59
2023/04/19 11:42:28;;;;;;;3.08;1.10;;;;;;;;;;5014443;28;20926;-59
2023/04/19 11:45:02;;;;;;;4.03;1.08;;;;;;;;;;5016099;28;20050;-60
2023/04/19 11:47:29;;;;;;;3.58;1.08;;;;;;;;;;5011812;28;20111;-61
2023/04/19 11:49:57;;;;;;;2.13;1.50;;;;;;;;;;5012933;28;20406;-61
2023/04/19 11:52:34;;;;;;;2.00;1.35;;;;;;;;;;5017160;28;20050;-60
2023/04/19 11:55:17;;;;;;;1.77;1.20;;;;;;;;;;5013463;28;20571;-60
2023/04/19 11:57:51;;;;;;;5.53;1.02;;;;;;;;;;5005594;28;20038;-61
2023/04/19 12:00:26;;;;;;;6.47;1.33;;;;;;;;;;5014984;28;20193;-61
2023/04/19 12:03:00;;;;;;;2.53;0.93;;;;;;;;;;5015027;28;20052;-60
2023/04/19 12:05:41;;;;;;;1.58;1.13;;;;;;;;;;5013943;28;20058;-49
2023/04/19 12:08:16;;;;;;;3.63;1.00;;;;;;;;;;4998831;28;20394;-52
2023/04/19 12:10:56;;;;;;;1.70;1.13;;;;;;;;;;5001960;28;20149;-50
2023/04/19 12:13:30;;;;;;;1.90;1.10;;;;;;;;;;5000632;28;20414;-54
2023/04/19 12:16:04;;;;;;;1.15;1.05;;;;;;;;;;5000552;28;20416;-55
2023/04/19 12:18:44;;;;;;;1.80;1.25;;;;;;;;;;5001382;28;20053;-50
2023/04/19 12:21:27;;;;;;;2.00;1.30;;;;;;;;;;4998678;28;20054;-52
2023/04/19 12:23:58;;;;;;;5.25;1.30;;;;;;;;;;5000462;28;20128;-55
2023/04/19 12:26:33;;;;;;;2.78;1.20;;;;;;;;;;4999304;28;20414;-50
2023/04/19 12:29:01;;;;;;;1.95;1.30;;;;;;;;;;4999839;28;20064;-55
2023/04/19 12:31:31;;;;;;;3.65;1.20;;;;;;;;;;5002730;28;20563;-53
2023/04/19 12:34:05;;;;;;;2.72;1.45;;;;;;;;;;5002494;28;20086;-56
2023/04/19 12:36:32;;;;;;;1.75;1.17;;;;;;;;;;4996308;28;20136;-59
2023/04/19 12:39:06;;;;;;;2.15;1.17;;;;;;;;;;5000427;28;20409;-57
2023/04/19 12:41:33;;;;;;;;;;;;;;;;;;5002697;28;20463;-56
2023/04/19 12:44:00;;;;;;;5.47;1.50;;;;;;;;;;4999650;28;19932;-62
2023/04/19 12:46:34;;;;;;;3.30;2.17;;;;;;;;;;4997978;28;20442;-58
2023/04/19 12:49:01;;;;;;;1.83;1.27;;;;;;;;;;4985906;28;20057;-58
2023/04/19 12:51:35;;;;;;;2.85;1.20;;;;;;;;;;5003521;28;20133;-56
2023/04/19 12:54:02;;;;;;;;;;;;;;;;;;5001717;28;20064;-57
2023/04/19 12:56:29;;;;;;;3.60;1.15;;;;;;;;;;4998785;28;19925;-58
2023/04/19 12:59:04;;;;;;;1.75;1.10;;;;;;;;;;4996842;28;20058;-54
2023/04/19 13:01:32;;;;;;;3.28;1.30;;;;;;;;;;5000496;28;20086;-60
2023/04/19 13:03:59;;;;;;;6.45;1.40;;;;;;;;;;5002480;28;20425;-59
2023/04/19 13:06:45;;;;;;;1.17;0.85;;;;;;;;;;5003418;28;20184;-59
2023/04/19 13:09:19;;;;;;;4.35;1.30;;;;;;;;;;5012395;28;20136;-61
2023/04/19 13:11:55;;;;;;;2.35;1.00;;;;;;;;;;5008279;28;20149;-51
2023/04/19 13:14:22;;;;;;;3.72;1.67;;;;;;;;;;5014280;28;20523;-60
2023/04/19 13:16:49;;;;;;;3.85;1.17;;;;;;;;;;5012452;28;20054;-60
2023/04/19 13:19:23;;;;;;;0.70;0.70;;;;;;;;;;5015351;28;20050;-60
2023/04/19 13:21:50;;;;;;;3.13;1.10;;;;;;;;;;5011680;28;20140;-60
2023/04/19 13:24:24;;;;;;;1.80;1.20;;;;;;;;;;5011735;28;20058;-60
2023/04/19 13:26:51;;;;;;;2.70;0.90;;;;;;;;;;5012080;28;20050;-60
2023/04/19 13:29:18;;;;;;;1.67;0.85;;;;;;;;;;5008998;28;20054;-60
2023/04/19 13:31:52;;;;;;;0.90;0.60;;;;;;;;;;5012369;28;20057;-47
2023/04/19 13:34:33;;;;;;;5.97;0.95;;;;;;;;;;5010895;28;20503;-50
2023/04/19 13:37:13;;;;;;;2.78;1.10;;;;;;;;;;5011705;28;20050;-50
2023/04/19 13:39:41;;;;;;;3.60;1.00;;;;;;;;;;5010920;28;20050;-52
2023/04/19 13:42:15;;;;;;;0.80;0.80;;;;;;;;;;5011372;28;20540;-59
2023/04/19 13:44:42;;;;;;;1.40;0.93;;;;;;;;;;5011112;28;20049;-61
2023/04/19 13:47:09;;;;;;;1.90;0.93;;;;;;;;;;5009323;28;20470;-61
2023/04/19 13:49:44;;;;;;;4.63;1.05;;;;;;;;;;5011084;28;20053;-61
2023/04/19 13:52:11;;;;;;;1.85;0.85;;;;;;;;;;5014498;28;20136;-62
2023/04/19 13:54:39;;;;;;;1.50;0.70;;;;;;;;;;5011443;28;22616;-61
2023/04/19 13:57:13;;;;;;;2.55;1.00;;;;;;;;;;5011866;28;20042;-61
2023/04/19 13:59:40;;;;;;;2.15;0.70;;;;;;;;;;5009908;28;20150;-60
2023/04/19 14:02:08;;;;;;;6.50;1.15;;;;;;;;;;5011121;28;20053;-59
2023/04/19 14:04:42;;;;;;;2.42;1.00;;;;;;;;;;5010810;28;20675;-60
2023/04/19 14:07:21;;;;;;;3.22;0.98;;;;;;;;;;5013917;28;20603;-60
2023/04/19 14:09:56;;;;;;;1.33;0.90;;;;;;;;;;5017486;28;20156;-62
2023/04/19 14:12:23;;;;;;;1.92;0.95;;;;;;;;;;5015484;28;20049;-60
2023/04/19 14:14:50;;;;;;;3.67;0.80;;;;;;;;;;5009990;28;20058;-59
2023/04/19 14:17:24;;;;;;;2.75;0.85;;;;;;;;;;5012765;28;20045;-60
2023/04/19 14:19:51;;;;;;;1.70;0.77;;;;;;;;;;5011535;28;20053;-60
2023/04/19 14:22:25;;;;;;;0.50;0.50;;;;;;;;;;5015202;28;20057;-60
2023/04/19 14:24:52;;;;;;;0.90;0.82;;;;;;;;;;5014407;28;20150;-60
2023/04/19 14:27:19;;;;;;;3.00;0.82;;;;;;;;;;5014249;28;20046;-59
2023/04/19 14:29:53;;;;;;;2.45;0.95;;;;;;;;;;5010244;28;20050;-59
2023/04/19 14:32:20;;;;;;;2.25;0.80;;;;;;;;;;5009339;28;21372;-59
2023/04/19 14:34:54;;;;;;;1.83;0.93;;;;;;;;;;5010835;28;20141;-59
2023/04/19 14:37:23;;;;;;;2.25;0.80;;;;;;;;;;5012874;28;20103;-61
2023/04/19 14:39:50;;;;;;;4.82;0.93;;;;;;;;;;5015562;28;20121;-59
2023/04/19 14:42:24;;;;;;;2.55;0.90;;;;;;;;;;5012863;28;20465;-61
2023/04/19 14:44:51;;;;;;;5.00;1.00;;;;;;;;;;5012249;28;20540;-59
2023/04/19 14:47:25;;;;;;;0.90;0.60;;;;;;;;;;5014584;28;20298;-60
2023/04/19 14:49:52;;;;;;;0.77;0.70;;;;;;;;;;5016107;28;20058;-60
2023/04/19 14:52:20;;;;;;;0.80;0.75;;;;;;;;;;5017383;28;20052;-60
2023/04/19 14:54:54;;;;;;;1.48;0.65;;;;;;;;;;5018930;28;20049;-60
2023/04/19 14:57:21;;;;;;;1.92;0.70;;;;;;;;;;5023421;28;20045;-60
2023/04/19 14:59:59;;;;;;;0.47;0.47;;;;;;;;;;5016184;28;20056;-60
2023/04/19 15:02:27;;;;;;;2.65;0.70;;;;;;;;;;5019428;28;20104;-60
2023/04/19 15:04:55;;;;;;;1.77;0.57;;;;;;;;;;5014943;28;20325;-60
2023/04/19 15:07:41;;;;;;;0.95;0.70;;;;;;;;;;5022188;28;20061;-60
2023/04/19 15:10:16;;;;;;;1.90;0.60;;;;;;;;;;5018964;28;20501;-59
2023/04/19 15:12:50;;;;;;;2.50;0.80;;;;;;;;;;5016491;28;20089;-59